SBI5255 UHHH-UHSS
Flight info
| Callsign | SBI5255 |
|---|---|
| Flight time | N/A |
| Altitude | 37000 |
| Route | NEBES2U NEBES DCT KELUL KELUL2A |
| Aircraft | B737/M-SDE3GHIJ1RWY/L |
Departure
| Time | 2026-05-08 15:49 |
|---|---|
| Airport | Khabarovsk Novy Airport (UHHH) |
Arrival
| Time | N/A |
|---|---|
| Airport | Yuzhno-Sakhalinsk International Airport (UHSS) |
| Time | Latitude | Longitude | Altitude | Speed | Heading |
|---|---|---|---|---|---|
| 2026-05-08 15:38 | 48.52474 | 135.17163 | 278 ft | 0 kts | 311° |
| 2026-05-08 15:43 | 48.52470 | 135.17171 | 277 ft | 1 kts | 311° |
| 2026-05-08 15:43 | 48.52457 | 135.17189 | 277 ft | 3 kts | 333° |
| 2026-05-08 15:43 | 48.52426 | 135.17172 | 273 ft | 5 kts | 49° |
| 2026-05-08 15:44 | 48.52422 | 135.17166 | 273 ft | 0 kts | 49° |
| 2026-05-08 15:44 | 48.52428 | 135.17175 | 273 ft | 1 kts | 44° |
| 2026-05-08 15:44 | 48.52445 | 135.17198 | 274 ft | 6 kts | 41° |
| 2026-05-08 15:44 | 48.52484 | 135.17311 | 270 ft | 18 kts | 70° |
| 2026-05-08 15:45 | 48.52516 | 135.17407 | 289 ft | 3 kts | 36° |
| 2026-05-08 15:45 | 48.52544 | 135.17462 | 295 ft | 11 kts | 85° |
| 2026-05-08 15:45 | 48.52419 | 135.17609 | 267 ft | 31 kts | 155° |
| 2026-05-08 15:45 | 48.52316 | 135.17740 | 250 ft | 0 kts | 131° |
| 2026-05-08 15:46 | 48.52311 | 135.17747 | 249 ft | 7 kts | 131° |
| 2026-05-08 15:47 | 48.52238 | 135.17874 | 246 ft | 19 kts | 131° |
| 2026-05-08 15:47 | 48.52148 | 135.18028 | 242 ft | 19 kts | 132° |
| 2026-05-08 15:47 | 48.52130 | 135.18056 | 242 ft | 0 kts | 132° |
| 2026-05-08 15:48 | 48.52130 | 135.18057 | 242 ft | 0 kts | 131° |
| 2026-05-08 15:48 | 48.52119 | 135.18111 | 241 ft | 9 kts | 88° |
| 2026-05-08 15:49 | 48.52180 | 135.18242 | 240 ft | 38 kts | 43° |
| 2026-05-08 15:49 | 48.52652 | 135.18889 | 241 ft | 142 kts | 42° |
| 2026-05-08 15:49 | 48.53619 | 135.20227 | 357 ft | 223 kts | 43° |
| 2026-05-08 15:49 | 48.54847 | 135.22026 | 1170 ft | 264 kts | 45° |
| 2026-05-08 15:50 | 48.56111 | 135.23946 | 2568 ft | 275 kts | 45° |
| 2026-05-08 15:50 | 48.57367 | 135.26134 | 3539 ft | 294 kts | 56° |
| 2026-05-08 15:50 | 48.58222 | 135.28986 | 3655 ft | 295 kts | 74° |
| 2026-05-08 15:50 | 48.58410 | 135.32039 | 3619 ft | 305 kts | 95° |
| 2026-05-08 15:51 | 48.57827 | 135.35451 | 3915 ft | 359 kts | 112° |
| 2026-05-08 15:51 | 48.56476 | 135.38863 | 4400 ft | 401 kts | 127° |
| 2026-05-08 15:51 | 48.54632 | 135.42142 | 5931 ft | 409 kts | 130° |
| 2026-05-08 15:51 | 48.52733 | 135.45456 | 6890 ft | 431 kts | 130° |
| 2026-05-08 15:52 | 48.50824 | 135.48764 | 8729 ft | 426 kts | 130° |
| 2026-05-08 15:52 | 48.48892 | 135.52269 | 9969 ft | 434 kts | 124° |
| 2026-05-08 15:52 | 48.47365 | 135.56119 | 11080 ft | 446 kts | 117° |
| 2026-05-08 15:52 | 48.46448 | 135.60571 | 12599 ft | 443 kts | 99° |
| 2026-05-08 15:53 | 48.46075 | 135.65176 | 13243 ft | 462 kts | 97° |
| 2026-05-08 15:53 | 48.45590 | 135.69897 | 14959 ft | 451 kts | 99° |
| 2026-05-08 15:53 | 48.45007 | 135.74728 | 15003 ft | 480 kts | 101° |
| 2026-05-08 15:53 | 48.44383 | 135.79469 | 16890 ft | 465 kts | 101° |
| 2026-05-08 15:54 | 48.43722 | 135.84412 | 17171 ft | 487 kts | 101° |
| 2026-05-08 15:54 | 48.43062 | 135.89343 | 17965 ft | 496 kts | 101° |
| 2026-05-08 15:54 | 48.42387 | 135.94369 | 19578 ft | 484 kts | 101° |
| 2026-05-08 15:54 | 48.41704 | 135.99451 | 19668 ft | 506 kts | 101° |
| 2026-05-08 15:55 | 48.41011 | 136.04588 | 20658 ft | 508 kts | 101° |
| 2026-05-08 15:55 | 48.39594 | 136.15027 | 21955 ft | 522 kts | 101° |
| 2026-05-08 15:55 | 48.38873 | 136.20316 | 22826 ft | 524 kts | 101° |
| 2026-05-08 15:56 | 48.38146 | 136.25621 | 23869 ft | 520 kts | 101° |
| 2026-05-08 15:56 | 48.37405 | 136.31012 | 24183 ft | 531 kts | 101° |
| 2026-05-08 15:56 | 48.36649 | 136.36490 | 24532 ft | 541 kts | 101° |
| 2026-05-08 15:56 | 48.35888 | 136.41983 | 25326 ft | 541 kts | 101° |
| 2026-05-08 15:57 | 48.35116 | 136.47539 | 25804 ft | 542 kts | 101° |
| 2026-05-08 15:57 | 48.34338 | 136.53114 | 25978 ft | 543 kts | 101° |
| 2026-05-08 15:57 | 48.33561 | 136.58659 | 26009 ft | 546 kts | 101° |
| 2026-05-08 15:57 | 48.32767 | 136.64308 | 26089 ft | 547 kts | 101° |
| 2026-05-08 15:58 | 48.31982 | 136.69870 | 26139 ft | 547 kts | 102° |
| 2026-05-08 15:58 | 48.31184 | 136.75505 | 26142 ft | 547 kts | 102° |
| 2026-05-08 15:58 | 48.30376 | 136.81120 | 26141 ft | 547 kts | 102° |
| 2026-05-08 15:58 | 48.29572 | 136.86647 | 26144 ft | 547 kts | 102° |
| 2026-05-08 15:59 | 48.28748 | 136.92293 | 26145 ft | 547 kts | 102° |
| 2026-05-08 15:59 | 48.27937 | 136.97827 | 26145 ft | 547 kts | 102° |
| 2026-05-08 15:59 | 48.27115 | 137.03413 | 26145 ft | 547 kts | 102° |
| 2026-05-08 15:59 | 48.26291 | 137.08997 | 26145 ft | 547 kts | 102° |
| 2026-05-08 16:00 | 48.25466 | 137.14563 | 26145 ft | 547 kts | 102° |
| 2026-05-08 16:00 | 48.24631 | 137.20177 | 26145 ft | 547 kts | 102° |
| 2026-05-08 16:00 | 48.23795 | 137.25783 | 26145 ft | 547 kts | 102° |
| 2026-05-08 16:00 | 48.22971 | 137.31285 | 26146 ft | 547 kts | 102° |
| 2026-05-08 16:01 | 48.22133 | 137.36858 | 26146 ft | 547 kts | 102° |
| 2026-05-08 16:01 | 48.21285 | 137.42484 | 26146 ft | 547 kts | 102° |
| 2026-05-08 16:01 | 48.20450 | 137.47995 | 26146 ft | 547 kts | 102° |
| 2026-05-08 16:01 | 48.19601 | 137.53587 | 26146 ft | 547 kts | 102° |
| 2026-05-08 16:02 | 48.18758 | 137.59119 | 26147 ft | 547 kts | 102° |
| 2026-05-08 16:02 | 48.17909 | 137.64668 | 26147 ft | 547 kts | 102° |
| 2026-05-08 16:02 | 48.17044 | 137.70303 | 26147 ft | 547 kts | 103° |
| 2026-05-08 16:02 | 48.16196 | 137.75807 | 26147 ft | 547 kts | 103° |
| 2026-05-08 16:03 | 48.15330 | 137.81410 | 26147 ft | 547 kts | 103° |
| 2026-05-08 16:03 | 48.14476 | 137.86919 | 26147 ft | 547 kts | 103° |
| 2026-05-08 16:03 | 48.13610 | 137.92484 | 26147 ft | 547 kts | 103° |
| 2026-05-08 16:03 | 48.12742 | 137.98039 | 26147 ft | 547 kts | 103° |
| 2026-05-08 16:04 | 48.11874 | 138.03578 | 26147 ft | 547 kts | 103° |
| 2026-05-08 16:04 | 48.11002 | 138.09129 | 26147 ft | 547 kts | 103° |
| 2026-05-08 16:04 | 48.10129 | 138.14662 | 26147 ft | 547 kts | 103° |
| 2026-05-08 16:04 | 48.09248 | 138.20224 | 26148 ft | 547 kts | 103° |
| 2026-05-08 16:05 | 48.08369 | 138.25763 | 26148 ft | 547 kts | 103° |
| 2026-05-08 16:05 | 48.07481 | 138.31334 | 26148 ft | 547 kts | 103° |
| 2026-05-08 16:05 | 48.06599 | 138.36848 | 26148 ft | 547 kts | 103° |
| 2026-05-08 16:05 | 48.05710 | 138.42390 | 26148 ft | 547 kts | 103° |
| 2026-05-08 16:06 | 48.04819 | 138.47922 | 26148 ft | 547 kts | 103° |
| 2026-05-08 16:06 | 48.03922 | 138.53481 | 26148 ft | 547 kts | 103° |
| 2026-05-08 16:06 | 48.03035 | 138.58954 | 26148 ft | 547 kts | 103° |
| 2026-05-08 16:06 | 48.02132 | 138.64505 | 26148 ft | 547 kts | 103° |
| 2026-05-08 16:07 | 48.01242 | 138.69960 | 27264 ft | 525 kts | 104° |
| 2026-05-08 16:07 | 48.00520 | 138.74381 | 32102 ft | 427 kts | 104° |
| 2026-05-08 16:07 | 47.99826 | 138.78615 | 32014 ft | 449 kts | 104° |
| 2026-05-08 16:07 | 47.99051 | 138.83321 | 29758 ft | 484 kts | 104° |
| 2026-05-08 16:08 | 47.98268 | 138.88066 | 29784 ft | 458 kts | 104° |
| 2026-05-08 16:08 | 47.97516 | 138.92615 | 29755 ft | 440 kts | 104° |
| 2026-05-08 16:08 | 47.96051 | 139.01440 | 29786 ft | 446 kts | 104° |
| 2026-05-08 16:09 | 47.94530 | 139.10555 | 29776 ft | 450 kts | 104° |
| 2026-05-08 16:09 | 47.93016 | 139.19574 | 29776 ft | 449 kts | 104° |
| 2026-05-08 16:10 | 47.91482 | 139.28671 | 29776 ft | 449 kts | 104° |
| 2026-05-08 16:10 | 47.89948 | 139.37718 | 29776 ft | 449 kts | 104° |
| 2026-05-08 16:11 | 47.88401 | 139.46794 | 29776 ft | 449 kts | 104° |
| 2026-05-08 16:11 | 47.86854 | 139.55824 | 29776 ft | 449 kts | 104° |
| 2026-05-08 16:12 | 47.85985 | 139.64958 | 29775 ft | 448 kts | 98° |
| 2026-05-08 16:12 | 47.84659 | 139.74095 | 29777 ft | 449 kts | 104° |
| 2026-05-08 16:13 | 47.83122 | 139.83180 | 29776 ft | 449 kts | 104° |
| 2026-05-08 16:13 | 47.81576 | 139.92192 | 29776 ft | 449 kts | 104° |
| 2026-05-08 16:14 | 47.80031 | 140.01157 | 29776 ft | 449 kts | 104° |
| 2026-05-08 16:14 | 47.78471 | 140.10156 | 29776 ft | 449 kts | 104° |
| 2026-05-08 16:15 | 47.76898 | 140.19186 | 29776 ft | 449 kts | 104° |
| 2026-05-08 16:15 | 47.75328 | 140.28152 | 29776 ft | 449 kts | 104° |
| 2026-05-08 16:16 | 47.73747 | 140.37134 | 29776 ft | 449 kts | 104° |
| 2026-05-08 16:16 | 47.72157 | 140.46123 | 29776 ft | 449 kts | 104° |
| 2026-05-08 16:17 | 47.70552 | 140.55153 | 29776 ft | 449 kts | 104° |
| 2026-05-08 16:17 | 47.68952 | 140.64110 | 29776 ft | 449 kts | 104° |
| 2026-05-08 16:18 | 47.67343 | 140.73074 | 29776 ft | 449 kts | 105° |
| 2026-05-08 16:18 | 47.65718 | 140.82077 | 29776 ft | 449 kts | 105° |
| 2026-05-08 16:19 | 47.64086 | 140.91077 | 29776 ft | 449 kts | 105° |
| 2026-05-08 16:19 | 47.62463 | 140.99988 | 29776 ft | 449 kts | 105° |
| 2026-05-08 16:20 | 47.60822 | 141.08946 | 29776 ft | 449 kts | 105° |
| 2026-05-08 16:20 | 47.59179 | 141.17879 | 29776 ft | 449 kts | 105° |
| 2026-05-08 16:21 | 47.57526 | 141.26814 | 29776 ft | 449 kts | 105° |
| 2026-05-08 16:21 | 47.55860 | 141.35783 | 29776 ft | 449 kts | 105° |
| 2026-05-08 16:22 | 47.54196 | 141.44699 | 29776 ft | 449 kts | 105° |
| 2026-05-08 16:22 | 47.52518 | 141.53642 | 29776 ft | 449 kts | 105° |
| 2026-05-08 16:23 | 47.50840 | 141.62543 | 29776 ft | 449 kts | 105° |
| 2026-05-08 16:23 | 47.49158 | 141.71428 | 29776 ft | 449 kts | 106° |
| 2026-05-08 16:24 | 47.47469 | 141.80301 | 29776 ft | 449 kts | 106° |
| 2026-05-08 16:24 | 47.45767 | 141.89206 | 29776 ft | 449 kts | 106° |
| 2026-05-08 16:25 | 47.44061 | 141.98091 | 29776 ft | 449 kts | 106° |
| 2026-05-08 16:25 | 47.42345 | 142.06982 | 29776 ft | 449 kts | 106° |
| 2026-05-08 16:26 | 47.40623 | 142.15866 | 29776 ft | 449 kts | 106° |
| 2026-05-08 16:26 | 47.38893 | 142.24748 | 29776 ft | 449 kts | 106° |
| 2026-05-08 16:27 | 47.37160 | 142.33607 | 29776 ft | 449 kts | 106° |
| 2026-05-08 16:27 | 47.35421 | 142.42453 | 29776 ft | 449 kts | 106° |
| 2026-05-08 16:28 | 47.33596 | 142.51256 | 29777 ft | 449 kts | 107° |
| 2026-05-08 16:28 | 47.31795 | 142.60147 | 29776 ft | 449 kts | 106° |
| 2026-05-08 16:29 | 47.30014 | 142.69078 | 29827 ft | 469 kts | 107° |
| 2026-05-08 16:29 | 47.29066 | 142.73810 | 29874 ft | 487 kts | 107° |
| 2026-05-08 16:29 | 47.28095 | 142.78650 | 30027 ft | 501 kts | 107° |
| 2026-05-08 16:30 | 47.27094 | 142.83626 | 30211 ft | 514 kts | 107° |
| 2026-05-08 16:30 | 47.26059 | 142.88759 | 30437 ft | 525 kts | 107° |
| 2026-05-08 16:30 | 47.25017 | 142.93907 | 30620 ft | 533 kts | 107° |
| 2026-05-08 16:30 | 47.23954 | 142.99156 | 30758 ft | 535 kts | 107° |
| 2026-05-08 16:31 | 47.21818 | 143.09645 | 30816 ft | 517 kts | 107° |
| 2026-05-08 16:31 | 47.20811 | 143.14574 | 30812 ft | 488 kts | 107° |
| 2026-05-08 16:31 | 47.19851 | 143.19261 | 30813 ft | 462 kts | 107° |
| 2026-05-08 16:32 | 47.18950 | 143.23651 | 30750 ft | 445 kts | 107° |
| 2026-05-08 16:32 | 47.18063 | 143.28029 | 30784 ft | 447 kts | 106° |
| 2026-05-08 16:32 | 47.16318 | 143.36993 | 30762 ft | 457 kts | 106° |
| 2026-05-08 16:33 | 47.14492 | 143.45898 | 30747 ft | 456 kts | 107° |
| 2026-05-08 16:33 | 47.12638 | 143.54817 | 30762 ft | 456 kts | 107° |
| 2026-05-08 16:34 | 47.10764 | 143.63786 | 30761 ft | 456 kts | 107° |
| 2026-05-08 16:34 | 47.08902 | 143.72656 | 30761 ft | 456 kts | 107° |
| 2026-05-08 16:35 | 47.07020 | 143.81560 | 30293 ft | 465 kts | 107° |
| 2026-05-08 16:35 | 47.06021 | 143.86092 | 29312 ft | 462 kts | 111° |
| 2026-05-08 16:35 | 47.04442 | 143.90051 | 29314 ft | 430 kts | 134° |
| 2026-05-08 16:36 | 47.02180 | 143.92812 | 27578 ft | 457 kts | 141° |
| 2026-05-08 16:36 | 47.00520 | 143.94608 | 20114 ft | 382 kts | 140° |
| 2026-05-08 16:36 | 46.98318 | 143.96793 | 18297 ft | 395 kts | 165° |